sensor_id;sensor_type;location;lat;lon;timestamp;P1;durP1;ratioP1;P2;durP2;ratioP2
46717;SDS011;32448;44.960;-0.698;2024-03-29T00:00:08;6.70;;;2.10;;
46717;SDS011;32448;44.960;-0.698;2024-03-29T00:02:39;7.60;;;2.63;;
46717;SDS011;32448;44.960;-0.698;2024-03-29T00:05:06;9.88;;;3.72;;
46717;SDS011;32448;44.960;-0.698;2024-03-29T00:07:34;14.70;;;6.55;;
46717;SDS011;32448;44.960;-0.698;2024-03-29T00:10:22;11.20;;;5.65;;
46717;SDS011;32448;44.960;-0.698;2024-03-29T00:12:59;9.43;;;4.60;;
46717;SDS011;32448;44.960;-0.698;2024-03-29T00:15:26;9.15;;;4.65;;
46717;SDS011;32448;44.960;-0.698;2024-03-29T00:17:54;11.10;;;4.82;;
46717;SDS011;32448;44.960;-0.698;2024-03-29T00:20:22;14.57;;;7.53;;
46717;SDS011;32448;44.960;-0.698;2024-03-29T00:22:50;16.00;;;8.95;;
46717;SDS011;32448;44.960;-0.698;2024-03-29T00:25:19;19.33;;;9.65;;
46717;SDS011;32448;44.960;-0.698;2024-03-29T00:28:50;15.30;;;8.23;;
46717;SDS011;32448;44.960;-0.698;2024-03-29T00:31:16;12.30;;;6.80;;
46717;SDS011;32448;44.960;-0.698;2024-03-29T00:33:45;12.25;;;4.38;;
46717;SDS011;32448;44.960;-0.698;2024-03-29T00:36:14;14.77;;;6.87;;
46717;SDS011;32448;44.960;-0.698;2024-03-29T00:38:42;14.25;;;4.97;;
46717;SDS011;32448;44.960;-0.698;2024-03-29T00:41:08;13.10;;;3.80;;
46717;SDS011;32448;44.960;-0.698;2024-03-29T00:43:35;8.30;;;2.95;;
46717;SDS011;32448;44.960;-0.698;2024-03-29T00:46:05;6.97;;;3.08;;
46717;SDS011;32448;44.960;-0.698;2024-03-29T00:48:37;9.65;;;2.75;;
46717;SDS011;32448;44.960;-0.698;2024-03-29T00:51:03;9.98;;;5.03;;
46717;SDS011;32448;44.960;-0.698;2024-03-29T00:54:02;11.65;;;3.80;;
46717;SDS011;32448;44.960;-0.698;2024-03-29T00:56:32;7.38;;;2.72;;
46717;SDS011;32448;44.960;-0.698;2024-03-29T00:59:01;5.53;;;2.10;;
46717;SDS011;32448;44.960;-0.698;2024-03-29T01:01:28;5.28;;;2.03;;
46717;SDS011;32448;44.960;-0.698;2024-03-29T01:03:58;10.43;;;2.15;;
46717;SDS011;32448;44.960;-0.698;2024-03-29T01:06:26;9.25;;;2.88;;
46717;SDS011;32448;44.960;-0.698;2024-03-29T01:09:00;9.55;;;3.72;;
46717;SDS011;32448;44.960;-0.698;2024-03-29T01:12:03;13.48;;;2.80;;
46717;SDS011;32448;44.960;-0.698;2024-03-29T01:18:22;4.22;;;1.67;;
46717;SDS011;32448;44.960;-0.698;2024-03-29T01:20:52;5.70;;;2.05;;
46717;SDS011;32448;44.960;-0.698;2024-03-29T01:23:28;5.60;;;2.00;;
46717;SDS011;32448;44.960;-0.698;2024-03-29T01:26:00;5.43;;;2.17;;
46717;SDS011;32448;44.960;-0.698;2024-03-29T01:28:34;5.13;;;1.60;;
46717;SDS011;32448;44.960;-0.698;2024-03-29T01:31:04;10.65;;;2.25;;
46717;SDS011;32448;44.960;-0.698;2024-03-29T01:33:35;7.00;;;1.88;;
46717;SDS011;32448;44.960;-0.698;2024-03-29T01:36:07;8.60;;;1.90;;
46717;SDS011;32448;44.960;-0.698;2024-03-29T01:38:34;4.53;;;1.75;;
46717;SDS011;32448;44.960;-0.698;2024-03-29T01:41:02;5.00;;;1.95;;
46717;SDS011;32448;44.960;-0.698;2024-03-29T01:43:29;9.55;;;2.25;;
46717;SDS011;32448;44.960;-0.698;2024-03-29T01:46:01;7.40;;;1.85;;
46717;SDS011;32448;44.960;-0.698;2024-03-29T01:48:57;5.57;;;1.98;;
46717;SDS011;32448;44.960;-0.698;2024-03-29T01:51:25;13.00;;;2.70;;
46717;SDS011;32448;44.960;-0.698;2024-03-29T01:53:54;9.57;;;2.72;;
46717;SDS011;32448;44.960;-0.698;2024-03-29T01:56:23;8.07;;;2.28;;
46717;SDS011;32448;44.960;-0.698;2024-03-29T01:58:54;4.72;;;1.90;;
46717;SDS011;32448;44.960;-0.698;2024-03-29T02:01:28;8.27;;;2.08;;
46717;SDS011;32448;44.960;-0.698;2024-03-29T02:03:59;6.03;;;2.13;;
46717;SDS011;32448;44.960;-0.698;2024-03-29T02:06:27;13.18;;;2.10;;
46717;SDS011;32448;44.960;-0.698;2024-03-29T02:08:54;5.95;;;1.73;;
46717;SDS011;32448;44.960;-0.698;2024-03-29T02:11:26;7.10;;;2.10;;
46717;SDS011;32448;44.960;-0.698;2024-03-29T02:13:53;5.80;;;1.88;;
46717;SDS011;32448;44.960;-0.698;2024-03-29T02:16:22;5.68;;;1.60;;
46717;SDS011;32448;44.960;-0.698;2024-03-29T02:18:53;6.68;;;2.05;;
46717;SDS011;32448;44.960;-0.698;2024-03-29T02:21:22;5.15;;;1.67;;
46717;SDS011;32448;44.960;-0.698;2024-03-29T02:26:37;4.72;;;1.73;;
46717;SDS011;32448;44.960;-0.698;2024-03-29T02:29:08;6.00;;;2.00;;
46717;SDS011;32448;44.960;-0.698;2024-03-29T02:31:35;8.10;;;1.90;;
46717;SDS011;32448;44.960;-0.698;2024-03-29T02:34:02;8.70;;;1.92;;
46717;SDS011;32448;44.960;-0.698;2024-03-29T02:36:28;7.93;;;1.80;;
46717;SDS011;32448;44.960;-0.698;2024-03-29T02:38:54;7.38;;;1.90;;
46717;SDS011;32448;44.960;-0.698;2024-03-29T02:41:21;5.70;;;1.63;;
46717;SDS011;32448;44.960;-0.698;2024-03-29T02:43:48;6.47;;;1.75;;
46717;SDS011;32448;44.960;-0.698;2024-03-29T02:46:20;5.93;;;1.90;;
46717;SDS011;32448;44.960;-0.698;2024-03-29T02:48:46;7.28;;;1.75;;
46717;SDS011;32448;44.960;-0.698;2024-03-29T02:51:16;5.45;;;1.83;;
46717;SDS011;32448;44.960;-0.698;2024-03-29T02:53:43;6.50;;;2.05;;
46717;SDS011;32448;44.960;-0.698;2024-03-29T02:56:09;7.72;;;2.17;;
46717;SDS011;32448;44.960;-0.698;2024-03-29T02:58:41;7.50;;;1.97;;
46717;SDS011;32448;44.960;-0.698;2024-03-29T03:01:11;5.90;;;1.88;;
46717;SDS011;32448;44.960;-0.698;2024-03-29T03:03:38;5.53;;;1.90;;
46717;SDS011;32448;44.960;-0.698;2024-03-29T03:06:07;5.82;;;1.58;;
46717;SDS011;32448;44.960;-0.698;2024-03-29T03:08:39;4.22;;;2.25;;
46717;SDS011;32448;44.960;-0.698;2024-03-29T03:11:24;6.45;;;1.70;;
46717;SDS011;32448;44.960;-0.698;2024-03-29T03:13:51;5.82;;;1.85;;
46717;SDS011;32448;44.960;-0.698;2024-03-29T03:16:20;3.65;;;1.30;;
46717;SDS011;32448;44.960;-0.698;2024-03-29T03:18:51;10.63;;;2.17;;
46717;SDS011;32448;44.960;-0.698;2024-03-29T03:21:45;4.80;;;1.65;;
46717;SDS011;32448;44.960;-0.698;2024-03-29T03:26:55;12.18;;;2.15;;
46717;SDS011;32448;44.960;-0.698;2024-03-29T03:29:33;5.82;;;1.90;;
46717;SDS011;32448;44.960;-0.698;2024-03-29T03:31:59;8.95;;;2.33;;
46717;SDS011;32448;44.960;-0.698;2024-03-29T03:34:28;10.10;;;1.90;;
46717;SDS011;32448;44.960;-0.698;2024-03-29T03:36:59;5.93;;;1.85;;
46717;SDS011;32448;44.960;-0.698;2024-03-29T03:39:29;5.78;;;1.60;;
46717;SDS011;32448;44.960;-0.698;2024-03-29T03:44:25;5.80;;;1.83;;
46717;SDS011;32448;44.960;-0.698;2024-03-29T03:46:51;7.25;;;2.35;;
46717;SDS011;32448;44.960;-0.698;2024-03-29T03:49:20;8.65;;;1.73;;
46717;SDS011;32448;44.960;-0.698;2024-03-29T03:51:49;6.93;;;1.85;;
46717;SDS011;32448;44.960;-0.698;2024-03-29T03:54:20;8.68;;;2.00;;
46717;SDS011;32448;44.960;-0.698;2024-03-29T03:56:50;7.00;;;1.85;;
46717;SDS011;32448;44.960;-0.698;2024-03-29T03:59:17;5.18;;;1.83;;
46717;SDS011;32448;44.960;-0.698;2024-03-29T04:02:01;6.45;;;1.80;;
46717;SDS011;32448;44.960;-0.698;2024-03-29T04:04:33;5.53;;;1.52;;
46717;SDS011;32448;44.960;-0.698;2024-03-29T04:07:07;5.78;;;1.90;;
46717;SDS011;32448;44.960;-0.698;2024-03-29T04:09:36;9.68;;;1.80;;
46717;SDS011;32448;44.960;-0.698;2024-03-29T04:12:12;4.63;;;1.70;;
46717;SDS011;32448;44.960;-0.698;2024-03-29T04:14:45;6.78;;;2.08;;
46717;SDS011;32448;44.960;-0.698;2024-03-29T04:17:11;10.32;;;1.95;;
46717;SDS011;32448;44.960;-0.698;2024-03-29T04:19:41;5.53;;;1.73;;
46717;SDS011;32448;44.960;-0.698;2024-03-29T04:22:10;5.07;;;2.00;;
46717;SDS011;32448;44.960;-0.698;2024-03-29T04:24:37;5.85;;;2.10;;
46717;SDS011;32448;44.960;-0.698;2024-03-29T04:27:14;6.25;;;1.80;;
46717;SDS011;32448;44.960;-0.698;2024-03-29T04:29:41;7.30;;;1.95;;
46717;SDS011;32448;44.960;-0.698;2024-03-29T04:32:12;6.93;;;2.03;;
46717;SDS011;32448;44.960;-0.698;2024-03-29T04:34:51;7.18;;;1.45;;
46717;SDS011;32448;44.960;-0.698;2024-03-29T04:37:23;7.05;;;1.73;;
46717;SDS011;32448;44.960;-0.698;2024-03-29T04:42:32;4.10;;;1.65;;
46717;SDS011;32448;44.960;-0.698;2024-03-29T04:45:05;8.55;;;2.20;;
46717;SDS011;32448;44.960;-0.698;2024-03-29T04:48:01;7.15;;;2.03;;
46717;SDS011;32448;44.960;-0.698;2024-03-29T04:50:35;5.68;;;1.80;;
46717;SDS011;32448;44.960;-0.698;2024-03-29T04:53:04;5.15;;;1.83;;
46717;SDS011;32448;44.960;-0.698;2024-03-29T04:55:42;6.60;;;1.80;;
46717;SDS011;32448;44.960;-0.698;2024-03-29T05:01:12;4.15;;;1.83;;
46717;SDS011;32448;44.960;-0.698;2024-03-29T05:03:40;7.60;;;1.75;;
46717;SDS011;32448;44.960;-0.698;2024-03-29T05:06:08;4.35;;;1.70;;
46717;SDS011;32448;44.960;-0.698;2024-03-29T05:08:46;3.70;;;1.80;;
46717;SDS011;32448;44.960;-0.698;2024-03-29T05:11:19;6.45;;;2.13;;
46717;SDS011;32448;44.960;-0.698;2024-03-29T05:14:02;4.82;;;1.65;;
46717;SDS011;32448;44.960;-0.698;2024-03-29T05:16:32;8.60;;;2.17;;
46717;SDS011;32448;44.960;-0.698;2024-03-29T05:19:02;6.00;;;2.15;;
46717;SDS011;32448;44.960;-0.698;2024-03-29T05:21:30;5.57;;;2.08;;
46717;SDS011;32448;44.960;-0.698;2024-03-29T05:24:05;3.97;;;1.90;;
46717;SDS011;32448;44.960;-0.698;2024-03-29T05:26:35;4.72;;;1.73;;
46717;SDS011;32448;44.960;-0.698;2024-03-29T05:29:07;4.25;;;1.88;;
46717;SDS011;32448;44.960;-0.698;2024-03-29T05:31:41;6.28;;;1.70;;
46717;SDS011;32448;44.960;-0.698;2024-03-29T05:34:15;6.78;;;1.75;;
46717;SDS011;32448;44.960;-0.698;2024-03-29T05:36:51;6.07;;;1.95;;
46717;SDS011;32448;44.960;-0.698;2024-03-29T05:39:19;6.50;;;1.90;;
46717;SDS011;32448;44.960;-0.698;2024-03-29T05:41:58;5.53;;;2.10;;
46717;SDS011;32448;44.960;-0.698;2024-03-29T05:44:34;4.88;;;1.70;;
46717;SDS011;32448;44.960;-0.698;2024-03-29T05:47:27;5.65;;;2.40;;
46717;SDS011;32448;44.960;-0.698;2024-03-29T05:49:55;6.07;;;2.53;;
46717;SDS011;32448;44.960;-0.698;2024-03-29T05:52:27;14.73;;;4.82;;
46717;SDS011;32448;44.960;-0.698;2024-03-29T05:55:00;14.25;;;5.47;;
46717;SDS011;32448;44.960;-0.698;2024-03-29T05:57:36;15.60;;;7.50;;
46717;SDS011;32448;44.960;-0.698;2024-03-29T06:00:14;78.90;;;29.77;;
46717;SDS011;32448;44.960;-0.698;2024-03-29T06:02:42;64.65;;;23.75;;
46717;SDS011;32448;44.960;-0.698;2024-03-29T06:05:10;57.88;;;22.00;;
46717;SDS011;32448;44.960;-0.698;2024-03-29T06:07:37;59.60;;;23.58;;
46717;SDS011;32448;44.960;-0.698;2024-03-29T06:10:03;64.10;;;24.83;;
46717;SDS011;32448;44.960;-0.698;2024-03-29T06:12:31;31.33;;;11.90;;
46717;SDS011;32448;44.960;-0.698;2024-03-29T06:14:57;22.05;;;8.25;;
46717;SDS011;32448;44.960;-0.698;2024-03-29T06:17:42;26.98;;;10.27;;
46717;SDS011;32448;44.960;-0.698;2024-03-29T06:20:08;24.38;;;10.82;;
46717;SDS011;32448;44.960;-0.698;2024-03-29T06:22:34;20.42;;;7.80;;
46717;SDS011;32448;44.960;-0.698;2024-03-29T06:25:00;16.73;;;5.38;;
46717;SDS011;32448;44.960;-0.698;2024-03-29T06:27:32;14.77;;;5.63;;
46717;SDS011;32448;44.960;-0.698;2024-03-29T06:29:59;12.25;;;4.63;;
46717;SDS011;32448;44.960;-0.698;2024-03-29T06:32:25;10.25;;;4.20;;
46717;SDS011;32448;44.960;-0.698;2024-03-29T06:34:51;11.02;;;3.85;;
46717;SDS011;32448;44.960;-0.698;2024-03-29T06:37:17;6.95;;;3.25;;
46717;SDS011;32448;44.960;-0.698;2024-03-29T06:39:44;14.20;;;3.97;;
46717;SDS011;32448;44.960;-0.698;2024-03-29T06:42:11;9.30;;;3.67;;
46717;SDS011;32448;44.960;-0.698;2024-03-29T06:44:37;10.30;;;3.20;;
46717;SDS011;32448;44.960;-0.698;2024-03-29T06:47:02;8.88;;;3.15;;
46717;SDS011;32448;44.960;-0.698;2024-03-29T06:49:29;7.10;;;3.05;;
46717;SDS011;32448;44.960;-0.698;2024-03-29T06:51:55;8.32;;;3.17;;
46717;SDS011;32448;44.960;-0.698;2024-03-29T06:54:23;10.10;;;3.30;;
46717;SDS011;32448;44.960;-0.698;2024-03-29T06:56:52;7.55;;;3.08;;
46717;SDS011;32448;44.960;-0.698;2024-03-29T06:59:19;10.38;;;2.90;;
46717;SDS011;32448;44.960;-0.698;2024-03-29T07:01:45;11.27;;;3.35;;
46717;SDS011;32448;44.960;-0.698;2024-03-29T07:04:16;8.15;;;3.47;;
46717;SDS011;32448;44.960;-0.698;2024-03-29T07:06:41;6.50;;;2.78;;
46717;SDS011;32448;44.960;-0.698;2024-03-29T07:09:11;8.45;;;3.20;;
46717;SDS011;32448;44.960;-0.698;2024-03-29T07:11:37;8.50;;;3.35;;
46717;SDS011;32448;44.960;-0.698;2024-03-29T07:14:02;10.27;;;3.45;;
46717;SDS011;32448;44.960;-0.698;2024-03-29T07:16:29;8.52;;;3.15;;
46717;SDS011;32448;44.960;-0.698;2024-03-29T07:18:55;8.68;;;3.53;;
46717;SDS011;32448;44.960;-0.698;2024-03-29T07:21:21;10.45;;;3.08;;
46717;SDS011;32448;44.960;-0.698;2024-03-29T07:23:49;8.32;;;3.20;;
46717;SDS011;32448;44.960;-0.698;2024-03-29T07:27:02;9.07;;;2.97;;
46717;SDS011;32448;44.960;-0.698;2024-03-29T07:30:07;9.60;;;3.22;;
46717;SDS011;32448;44.960;-0.698;2024-03-29T07:32:55;6.65;;;3.35;;
46717;SDS011;32448;44.960;-0.698;2024-03-29T07:35:22;6.60;;;2.80;;
46717;SDS011;32448;44.960;-0.698;2024-03-29T07:37:47;7.80;;;3.70;;
46717;SDS011;32448;44.960;-0.698;2024-03-29T07:40:16;8.25;;;2.90;;
46717;SDS011;32448;44.960;-0.698;2024-03-29T07:42:42;9.15;;;2.97;;
46717;SDS011;32448;44.960;-0.698;2024-03-29T07:45:08;9.60;;;4.28;;
46717;SDS011;32448;44.960;-0.698;2024-03-29T07:47:34;10.77;;;3.70;;
46717;SDS011;32448;44.960;-0.698;2024-03-29T07:50:00;9.00;;;3.40;;
46717;SDS011;32448;44.960;-0.698;2024-03-29T07:52:26;9.05;;;3.55;;
46717;SDS011;32448;44.960;-0.698;2024-03-29T07:54:52;9.50;;;3.88;;
46717;SDS011;32448;44.960;-0.698;2024-03-29T07:57:18;7.68;;;3.47;;
46717;SDS011;32448;44.960;-0.698;2024-03-29T07:59:47;6.60;;;2.75;;
46717;SDS011;32448;44.960;-0.698;2024-03-29T08:02:16;7.88;;;3.20;;
46717;SDS011;32448;44.960;-0.698;2024-03-29T08:04:57;8.23;;;2.92;;
46717;SDS011;32448;44.960;-0.698;2024-03-29T08:07:24;6.88;;;3.03;;
46717;SDS011;32448;44.960;-0.698;2024-03-29T08:10:16;11.13;;;3.70;;
46717;SDS011;32448;44.960;-0.698;2024-03-29T08:12:43;6.80;;;3.00;;
46717;SDS011;32448;44.960;-0.698;2024-03-29T08:15:09;5.65;;;2.70;;
46717;SDS011;32448;44.960;-0.698;2024-03-29T08:17:36;10.15;;;3.03;;
46717;SDS011;32448;44.960;-0.698;2024-03-29T08:20:05;7.95;;;2.80;;
46717;SDS011;32448;44.960;-0.698;2024-03-29T08:22:33;7.55;;;2.72;;
46717;SDS011;32448;44.960;-0.698;2024-03-29T08:25:04;5.78;;;2.13;;
46717;SDS011;32448;44.960;-0.698;2024-03-29T08:27:31;9.82;;;3.30;;
46717;SDS011;32448;44.960;-0.698;2024-03-29T08:29:59;9.38;;;3.95;;
46717;SDS011;32448;44.960;-0.698;2024-03-29T08:32:25;9.32;;;4.57;;
46717;SDS011;32448;44.960;-0.698;2024-03-29T08:35:04;9.18;;;3.80;;
46717;SDS011;32448;44.960;-0.698;2024-03-29T08:37:40;9.27;;;4.30;;
46717;SDS011;32448;44.960;-0.698;2024-03-29T08:40:07;8.65;;;3.60;;
46717;SDS011;32448;44.960;-0.698;2024-03-29T08:43:05;6.35;;;2.83;;
46717;SDS011;32448;44.960;-0.698;2024-03-29T08:45:35;6.95;;;2.20;;
46717;SDS011;32448;44.960;-0.698;2024-03-29T08:48:09;9.27;;;2.20;;
46717;SDS011;32448;44.960;-0.698;2024-03-29T08:50:35;3.95;;;1.95;;
46717;SDS011;32448;44.960;-0.698;2024-03-29T08:53:03;8.02;;;2.25;;
46717;SDS011;32448;44.960;-0.698;2024-03-29T08:55:35;7.82;;;2.10;;
46717;SDS011;32448;44.960;-0.698;2024-03-29T09:01:06;8.68;;;2.25;;
46717;SDS011;32448;44.960;-0.698;2024-03-29T09:03:40;11.07;;;2.58;;
46717;SDS011;32448;44.960;-0.698;2024-03-29T09:06:08;5.82;;;2.53;;
46717;SDS011;32448;44.960;-0.698;2024-03-29T09:08:34;6.75;;;2.95;;
46717;SDS011;32448;44.960;-0.698;2024-03-29T09:10:59;7.70;;;2.30;;
46717;SDS011;32448;44.960;-0.698;2024-03-29T09:13:30;8.15;;;2.53;;
46717;SDS011;32448;44.960;-0.698;2024-03-29T09:15:56;8.10;;;2.63;;
46717;SDS011;32448;44.960;-0.698;2024-03-29T09:18:29;8.13;;;2.20;;
46717;SDS011;32448;44.960;-0.698;2024-03-29T09:20:56;6.00;;;2.15;;
46717;SDS011;32448;44.960;-0.698;2024-03-29T09:23:32;5.07;;;1.80;;
46717;SDS011;32448;44.960;-0.698;2024-03-29T09:26:14;10.00;;;2.60;;
46717;SDS011;32448;44.960;-0.698;2024-03-29T09:28:45;14.80;;;2.75;;
46717;SDS011;32448;44.960;-0.698;2024-03-29T09:31:12;4.43;;;1.50;;
46717;SDS011;32448;44.960;-0.698;2024-03-29T09:33:44;5.43;;;1.60;;
46717;SDS011;32448;44.960;-0.698;2024-03-29T09:36:12;9.50;;;2.22;;
46717;SDS011;32448;44.960;-0.698;2024-03-29T09:38:43;6.72;;;1.85;;
46717;SDS011;32448;44.960;-0.698;2024-03-29T09:41:15;11.27;;;2.55;;
46717;SDS011;32448;44.960;-0.698;2024-03-29T09:49:19;8.18;;;1.88;;
46717;SDS011;32448;44.960;-0.698;2024-03-29T09:51:53;6.03;;;1.90;;
46717;SDS011;32448;44.960;-0.698;2024-03-29T09:54:20;10.82;;;2.17;;
46717;SDS011;32448;44.960;-0.698;2024-03-29T09:56:47;9.18;;;1.85;;
46717;SDS011;32448;44.960;-0.698;2024-03-29T09:59:31;4.95;;;1.40;;
46717;SDS011;32448;44.960;-0.698;2024-03-29T10:02:16;3.97;;;1.25;;
46717;SDS011;32448;44.960;-0.698;2024-03-29T10:04:45;4.25;;;1.77;;
46717;SDS011;32448;44.960;-0.698;2024-03-29T10:07:19;5.45;;;1.27;;
46717;SDS011;32448;44.960;-0.698;2024-03-29T10:09:59;4.32;;;1.27;;
46717;SDS011;32448;44.960;-0.698;2024-03-29T10:12:28;4.72;;;1.10;;
46717;SDS011;32448;44.960;-0.698;2024-03-29T10:14:58;3.90;;;1.07;;
46717;SDS011;32448;44.960;-0.698;2024-03-29T10:17:38;4.65;;;1.23;;
46717;SDS011;32448;44.960;-0.698;2024-03-29T10:20:17;7.18;;;1.20;;
46717;SDS011;32448;44.960;-0.698;2024-03-29T10:23:18;5.35;;;1.73;;
46717;SDS011;32448;44.960;-0.698;2024-03-29T10:25:45;4.63;;;0.85;;
46717;SDS011;32448;44.960;-0.698;2024-03-29T10:28:20;4.20;;;1.00;;
46717;SDS011;32448;44.960;-0.698;2024-03-29T10:31:14;3.22;;;1.27;;
46717;SDS011;32448;44.960;-0.698;2024-03-29T10:33:42;2.22;;;0.82;;
46717;SDS011;32448;44.960;-0.698;2024-03-29T10:36:10;4.93;;;1.33;;
46717;SDS011;32448;44.960;-0.698;2024-03-29T10:41:40;3.58;;;1.02;;
46717;SDS011;32448;44.960;-0.698;2024-03-29T10:47:18;4.90;;;1.30;;
46717;SDS011;32448;44.960;-0.698;2024-03-29T10:49:49;4.20;;;1.38;;
46717;SDS011;32448;44.960;-0.698;2024-03-29T10:52:22;2.35;;;1.00;;
46717;SDS011;32448;44.960;-0.698;2024-03-29T10:54:55;2.67;;;0.80;;
46717;SDS011;32448;44.960;-0.698;2024-03-29T10:57:28;2.15;;;0.90;;
46717;SDS011;32448;44.960;-0.698;2024-03-29T11:00:20;1.67;;;0.80;;
46717;SDS011;32448;44.960;-0.698;2024-03-29T11:05:48;4.53;;;1.60;;
46717;SDS011;32448;44.960;-0.698;2024-03-29T11:08:23;2.55;;;0.80;;
46717;SDS011;32448;44.960;-0.698;2024-03-29T11:10:57;1.90;;;0.80;;
46717;SDS011;32448;44.960;-0.698;2024-03-29T11:13:55;1.48;;;0.60;;
46717;SDS011;32448;44.960;-0.698;2024-03-29T11:16:41;3.92;;;0.75;;
46717;SDS011;32448;44.960;-0.698;2024-03-29T11:19:16;3.47;;;0.68;;
46717;SDS011;32448;44.960;-0.698;2024-03-29T11:21:59;2.63;;;0.88;;
46717;SDS011;32448;44.960;-0.698;2024-03-29T11:24:29;3.58;;;0.68;;
46717;SDS011;32448;44.960;-0.698;2024-03-29T11:27:13;5.47;;;0.82;;
46717;SDS011;32448;44.960;-0.698;2024-03-29T11:29:42;3.00;;;0.80;;
46717;SDS011;32448;44.960;-0.698;2024-03-29T11:32:43;1.73;;;0.65;;
46717;SDS011;32448;44.960;-0.698;2024-03-29T11:35:29;3.28;;;0.80;;
46717;SDS011;32448;44.960;-0.698;2024-03-29T11:38:09;3.85;;;0.90;;
46717;SDS011;32448;44.960;-0.698;2024-03-29T11:40:39;2.22;;;0.98;;
46717;SDS011;32448;44.960;-0.698;2024-03-29T11:43:54;4.28;;;1.00;;
46717;SDS011;32448;44.960;-0.698;2024-03-29T11:46:30;3.75;;;1.10;;
46717;SDS011;32448;44.960;-0.698;2024-03-29T11:49:04;5.95;;;1.80;;
46717;SDS011;32448;44.960;-0.698;2024-03-29T11:51:31;3.22;;;0.98;;
46717;SDS011;32448;44.960;-0.698;2024-03-29T11:53:57;3.42;;;0.93;;
46717;SDS011;32448;44.960;-0.698;2024-03-29T11:56:39;3.45;;;1.30;;
46717;SDS011;32448;44.960;-0.698;2024-03-29T11:59:06;3.55;;;1.42;;
46717;SDS011;32448;44.960;-0.698;2024-03-29T12:01:39;1.27;;;0.68;;
46717;SDS011;32448;44.960;-0.698;2024-03-29T12:04:08;4.28;;;1.13;;
46717;SDS011;32448;44.960;-0.698;2024-03-29T12:06:35;2.83;;;1.40;;
46717;SDS011;32448;44.960;-0.698;2024-03-29T12:09:06;4.18;;;1.35;;
46717;SDS011;32448;44.960;-0.698;2024-03-29T12:11:37;2.88;;;1.23;;
46717;SDS011;32448;44.960;-0.698;2024-03-29T12:14:11;4.30;;;1.20;;
46717;SDS011;32448;44.960;-0.698;2024-03-29T12:16:44;4.07;;;1.40;;
46717;SDS011;32448;44.960;-0.698;2024-03-29T12:19:46;4.97;;;1.27;;
46717;SDS011;32448;44.960;-0.698;2024-03-29T12:22:18;4.07;;;1.30;;
46717;SDS011;32448;44.960;-0.698;2024-03-29T12:24:47;7.10;;;1.33;;
46717;SDS011;32448;44.960;-0.698;2024-03-29T12:27:13;4.57;;;1.40;;
46717;SDS011;32448;44.960;-0.698;2024-03-29T12:29:54;4.85;;;1.60;;
46717;SDS011;32448;44.960;-0.698;2024-03-29T12:32:23;2.92;;;1.50;;
46717;SDS011;32448;44.960;-0.698;2024-03-29T12:34:52;5.50;;;1.63;;
46717;SDS011;32448;44.960;-0.698;2024-03-29T12:37:31;5.63;;;1.73;;
46717;SDS011;32448;44.960;-0.698;2024-03-29T12:39:59;6.65;;;2.40;;
46717;SDS011;32448;44.960;-0.698;2024-03-29T12:46:15;7.13;;;2.45;;
46717;SDS011;32448;44.960;-0.698;2024-03-29T12:48:43;5.57;;;2.17;;
46717;SDS011;32448;44.960;-0.698;2024-03-29T12:54:21;5.22;;;2.10;;
46717;SDS011;32448;44.960;-0.698;2024-03-29T12:56:49;7.13;;;3.95;;
46717;SDS011;32448;44.960;-0.698;2024-03-29T12:59:17;10.40;;;4.03;;
46717;SDS011;32448;44.960;-0.698;2024-03-29T13:01:46;8.10;;;3.47;;
46717;SDS011;32448;44.960;-0.698;2024-03-29T13:04:15;9.45;;;3.22;;
46717;SDS011;32448;44.960;-0.698;2024-03-29T13:06:52;7.00;;;3.30;;
46717;SDS011;32448;44.960;-0.698;2024-03-29T13:09:19;7.10;;;2.97;;
46717;SDS011;32448;44.960;-0.698;2024-03-29T13:11:45;7.25;;;2.92;;
46717;SDS011;32448;44.960;-0.698;2024-03-29T13:14:25;5.85;;;2.70;;
46717;SDS011;32448;44.960;-0.698;2024-03-29T13:16:52;5.07;;;2.22;;
46717;SDS011;32448;44.960;-0.698;2024-03-29T13:19:18;8.10;;;2.88;;
46717;SDS011;32448;44.960;-0.698;2024-03-29T13:24:41;9.00;;;3.42;;
46717;SDS011;32448;44.960;-0.698;2024-03-29T13:27:35;4.43;;;2.53;;
46717;SDS011;32448;44.960;-0.698;2024-03-29T13:30:08;7.55;;;3.40;;
46717;SDS011;32448;44.960;-0.698;2024-03-29T13:35:31;14.98;;;7.30;;
46717;SDS011;32448;44.960;-0.698;2024-03-29T13:38:07;47.88;;;17.73;;
46717;SDS011;32448;44.960;-0.698;2024-03-29T13:40:33;40.38;;;15.27;;
46717;SDS011;32448;44.960;-0.698;2024-03-29T13:43:04;10.27;;;3.78;;
46717;SDS011;32448;44.960;-0.698;2024-03-29T13:48:22;5.25;;;2.08;;
46717;SDS011;32448;44.960;-0.698;2024-03-29T13:50:48;3.90;;;1.80;;
46717;SDS011;32448;44.960;-0.698;2024-03-29T13:53:26;3.25;;;1.67;;
46717;SDS011;32448;44.960;-0.698;2024-03-29T13:55:54;4.95;;;2.70;;
46717;SDS011;32448;44.960;-0.698;2024-03-29T13:58:25;7.28;;;2.45;;
46717;SDS011;32448;44.960;-0.698;2024-03-29T14:00:53;6.88;;;3.20;;
46717;SDS011;32448;44.960;-0.698;2024-03-29T14:03:25;4.93;;;1.85;;
46717;SDS011;32448;44.960;-0.698;2024-03-29T14:05:58;5.30;;;2.13;;
46717;SDS011;32448;44.960;-0.698;2024-03-29T14:08:30;5.93;;;2.15;;
46717;SDS011;32448;44.960;-0.698;2024-03-29T14:11:00;4.88;;;1.50;;
46717;SDS011;32448;44.960;-0.698;2024-03-29T14:13:29;4.65;;;1.30;;
46717;SDS011;32448;44.960;-0.698;2024-03-29T14:18:58;2.75;;;1.17;;
46717;SDS011;32448;44.960;-0.698;2024-03-29T14:21:28;3.40;;;1.10;;
46717;SDS011;32448;44.960;-0.698;2024-03-29T14:23:56;2.42;;;1.38;;
46717;SDS011;32448;44.960;-0.698;2024-03-29T14:26:29;5.93;;;2.78;;
46717;SDS011;32448;44.960;-0.698;2024-03-29T14:28:58;8.98;;;4.30;;
46717;SDS011;32448;44.960;-0.698;2024-03-29T14:31:30;4.93;;;2.33;;
46717;SDS011;32448;44.960;-0.698;2024-03-29T14:34:03;6.20;;;3.17;;
46717;SDS011;32448;44.960;-0.698;2024-03-29T14:36:29;8.95;;;3.17;;
46717;SDS011;32448;44.960;-0.698;2024-03-29T14:39:08;5.65;;;2.78;;
46717;SDS011;32448;44.960;-0.698;2024-03-29T14:41:41;5.53;;;2.30;;
46717;SDS011;32448;44.960;-0.698;2024-03-29T14:44:11;12.65;;;3.15;;
46717;SDS011;32448;44.960;-0.698;2024-03-29T14:46:38;7.20;;;2.97;;
46717;SDS011;32448;44.960;-0.698;2024-03-29T14:49:10;3.30;;;1.83;;
46717;SDS011;32448;44.960;-0.698;2024-03-29T14:51:57;6.75;;;3.47;;
46717;SDS011;32448;44.960;-0.698;2024-03-29T14:54:50;22.83;;;9.65;;
46717;SDS011;32448;44.960;-0.698;2024-03-29T14:57:20;24.08;;;8.77;;
46717;SDS011;32448;44.960;-0.698;2024-03-29T15:03:06;4.80;;;1.95;;
46717;SDS011;32448;44.960;-0.698;2024-03-29T15:05:33;4.25;;;1.40;;
46717;SDS011;32448;44.960;-0.698;2024-03-29T15:07:59;2.60;;;1.20;;
46717;SDS011;32448;44.960;-0.698;2024-03-29T15:10:25;4.90;;;1.52;;
46717;SDS011;32448;44.960;-0.698;2024-03-29T15:12:51;4.95;;;1.45;;
46717;SDS011;32448;44.960;-0.698;2024-03-29T15:15:18;3.25;;;1.45;;
46717;SDS011;32448;44.960;-0.698;2024-03-29T15:18:03;2.47;;;1.27;;
46717;SDS011;32448;44.960;-0.698;2024-03-29T15:20:36;3.97;;;2.03;;
46717;SDS011;32448;44.960;-0.698;2024-03-29T15:23:03;4.65;;;1.70;;
46717;SDS011;32448;44.960;-0.698;2024-03-29T15:25:40;2.20;;;1.25;;
46717;SDS011;32448;44.960;-0.698;2024-03-29T15:28:09;2.10;;;1.40;;
46717;SDS011;32448;44.960;-0.698;2024-03-29T15:30:35;4.82;;;2.05;;
46717;SDS011;32448;44.960;-0.698;2024-03-29T15:33:17;4.28;;;1.80;;
46717;SDS011;32448;44.960;-0.698;2024-03-29T15:36:04;2.85;;;1.20;;
46717;SDS011;32448;44.960;-0.698;2024-03-29T15:38:44;3.72;;;1.30;;
46717;SDS011;32448;44.960;-0.698;2024-03-29T15:41:17;3.90;;;1.17;;
46717;SDS011;32448;44.960;-0.698;2024-03-29T15:43:48;2.35;;;1.00;;
46717;SDS011;32448;44.960;-0.698;2024-03-29T15:46:15;4.18;;;1.13;;
46717;SDS011;32448;44.960;-0.698;2024-03-29T15:48:56;3.83;;;1.30;;
46717;SDS011;32448;44.960;-0.698;2024-03-29T15:51:22;3.15;;;1.50;;
46717;SDS011;32448;44.960;-0.698;2024-03-29T15:56:47;3.70;;;2.10;;
46717;SDS011;32448;44.960;-0.698;2024-03-29T15:59:46;3.45;;;2.25;;